sensor_id;sensor_type;location;lat;lon;timestamp;P1;durP1;ratioP1;P2;durP2;ratioP2
26474;SDS011;14161;52.270;10.334;2023-04-24T00:02:22;0.47;;;0.40;;
26474;SDS011;14161;52.270;10.334;2023-04-24T00:04:48;0.45;;;0.45;;
26474;SDS011;14161;52.270;10.334;2023-04-24T00:07:14;1.00;;;0.70;;
26474;SDS011;14161;52.270;10.334;2023-04-24T00:09:43;1.33;;;0.60;;
26474;SDS011;14161;52.270;10.334;2023-04-24T00:12:09;0.50;;;0.47;;
26474;SDS011;14161;52.270;10.334;2023-04-24T00:14:36;2.80;;;0.60;;
26474;SDS011;14161;52.270;10.334;2023-04-24T00:17:01;0.73;;;0.60;;
26474;SDS011;14161;52.270;10.334;2023-04-24T00:19:35;3.30;;;0.55;;
26474;SDS011;14161;52.270;10.334;2023-04-24T00:22:01;0.40;;;0.30;;
26474;SDS011;14161;52.270;10.334;2023-04-24T00:24:27;0.45;;;0.45;;
26474;SDS011;14161;52.270;10.334;2023-04-24T00:26:53;0.65;;;0.60;;
26474;SDS011;14161;52.270;10.334;2023-04-24T00:29:18;0.50;;;0.50;;
26474;SDS011;14161;52.270;10.334;2023-04-24T00:31:44;1.00;;;0.63;;
26474;SDS011;14161;52.270;10.334;2023-04-24T00:34:09;0.88;;;0.50;;
26474;SDS011;14161;52.270;10.334;2023-04-24T00:36:36;0.77;;;0.40;;
26474;SDS011;14161;52.270;10.334;2023-04-24T00:39:02;0.50;;;0.50;;
26474;SDS011;14161;52.270;10.334;2023-04-24T00:41:27;1.00;;;0.70;;
26474;SDS011;14161;52.270;10.334;2023-04-24T00:43:53;1.13;;;0.60;;
26474;SDS011;14161;52.270;10.334;2023-04-24T00:46:19;1.50;;;0.55;;
26474;SDS011;14161;52.270;10.334;2023-04-24T00:48:44;0.60;;;0.60;;
26474;SDS011;14161;52.270;10.334;2023-04-24T00:51:10;0.40;;;0.40;;
26474;SDS011;14161;52.270;10.334;2023-04-24T00:53:35;1.30;;;0.60;;
26474;SDS011;14161;52.270;10.334;2023-04-24T00:56:01;1.05;;;0.70;;
26474;SDS011;14161;52.270;10.334;2023-04-24T00:58:27;0.50;;;0.50;;
26474;SDS011;14161;52.270;10.334;2023-04-24T01:00:53;0.50;;;0.50;;
26474;SDS011;14161;52.270;10.334;2023-04-24T01:03:21;0.70;;;0.70;;
26474;SDS011;14161;52.270;10.334;2023-04-24T01:05:48;0.80;;;0.70;;
26474;SDS011;14161;52.270;10.334;2023-04-24T01:08:14;0.52;;;0.52;;
26474;SDS011;14161;52.270;10.334;2023-04-24T01:10:40;1.00;;;0.60;;
26474;SDS011;14161;52.270;10.334;2023-04-24T01:13:07;0.68;;;0.60;;
26474;SDS011;14161;52.270;10.334;2023-04-24T01:15:33;1.00;;;0.68;;
26474;SDS011;14161;52.270;10.334;2023-04-24T01:18:01;1.70;;;0.50;;
26474;SDS011;14161;52.270;10.334;2023-04-24T01:20:27;2.30;;;0.63;;
26474;SDS011;14161;52.270;10.334;2023-04-24T01:22:56;2.25;;;0.85;;
26474;SDS011;14161;52.270;10.334;2023-04-24T01:25:22;0.55;;;0.52;;
26474;SDS011;14161;52.270;10.334;2023-04-24T01:27:48;1.27;;;0.70;;
26474;SDS011;14161;52.270;10.334;2023-04-24T01:30:14;0.73;;;0.60;;
26474;SDS011;14161;52.270;10.334;2023-04-24T01:32:40;2.72;;;0.60;;
26474;SDS011;14161;52.270;10.334;2023-04-24T01:35:06;0.77;;;0.52;;
26474;SDS011;14161;52.270;10.334;2023-04-24T01:37:32;0.80;;;0.80;;
26474;SDS011;14161;52.270;10.334;2023-04-24T01:39:58;0.70;;;0.70;;
26474;SDS011;14161;52.270;10.334;2023-04-24T01:42:24;0.80;;;0.60;;
26474;SDS011;14161;52.270;10.334;2023-04-24T01:44:50;1.50;;;0.90;;
26474;SDS011;14161;52.270;10.334;2023-04-24T01:47:16;1.45;;;0.90;;
26474;SDS011;14161;52.270;10.334;2023-04-24T01:49:41;1.23;;;0.65;;
26474;SDS011;14161;52.270;10.334;2023-04-24T01:52:07;0.60;;;0.60;;
26474;SDS011;14161;52.270;10.334;2023-04-24T01:54:32;0.95;;;0.70;;
26474;SDS011;14161;52.270;10.334;2023-04-24T01:56:58;0.55;;;0.55;;
26474;SDS011;14161;52.270;10.334;2023-04-24T01:59:25;0.70;;;0.63;;
26474;SDS011;14161;52.270;10.334;2023-04-24T02:01:53;1.95;;;0.95;;
26474;SDS011;14161;52.270;10.334;2023-04-24T02:04:18;1.63;;;0.80;;
26474;SDS011;14161;52.270;10.334;2023-04-24T02:06:43;0.90;;;0.63;;
26474;SDS011;14161;52.270;10.334;2023-04-24T02:09:09;0.55;;;0.55;;
26474;SDS011;14161;52.270;10.334;2023-04-24T02:11:35;0.70;;;0.70;;
26474;SDS011;14161;52.270;10.334;2023-04-24T02:14:01;1.02;;;0.70;;
26474;SDS011;14161;52.270;10.334;2023-04-24T02:16:27;1.55;;;0.77;;
26474;SDS011;14161;52.270;10.334;2023-04-24T02:18:57;2.08;;;0.70;;
26474;SDS011;14161;52.270;10.334;2023-04-24T02:21:23;0.98;;;0.63;;
26474;SDS011;14161;52.270;10.334;2023-04-24T02:23:48;0.60;;;0.50;;
26474;SDS011;14161;52.270;10.334;2023-04-24T02:26:14;0.45;;;0.45;;
26474;SDS011;14161;52.270;10.334;2023-04-24T02:28:40;0.60;;;0.60;;
26474;SDS011;14161;52.270;10.334;2023-04-24T02:31:05;2.88;;;0.80;;
26474;SDS011;14161;52.270;10.334;2023-04-24T02:33:31;1.77;;;1.02;;
26474;SDS011;14161;52.270;10.334;2023-04-24T02:35:56;1.00;;;0.60;;
26474;SDS011;14161;52.270;10.334;2023-04-24T02:38:22;0.90;;;0.70;;
26474;SDS011;14161;52.270;10.334;2023-04-24T02:40:47;3.60;;;0.60;;
26474;SDS011;14161;52.270;10.334;2023-04-24T02:43:13;0.80;;;0.80;;
26474;SDS011;14161;52.270;10.334;2023-04-24T02:45:39;1.40;;;0.75;;
26474;SDS011;14161;52.270;10.334;2023-04-24T02:48:04;1.25;;;1.00;;
26474;SDS011;14161;52.270;10.334;2023-04-24T02:50:30;2.30;;;1.05;;
26474;SDS011;14161;52.270;10.334;2023-04-24T02:52:56;1.35;;;0.93;;
26474;SDS011;14161;52.270;10.334;2023-04-24T02:55:22;0.80;;;0.70;;
26474;SDS011;14161;52.270;10.334;2023-04-24T02:57:47;1.25;;;0.77;;
26474;SDS011;14161;52.270;10.334;2023-04-24T03:00:13;0.63;;;0.63;;
26474;SDS011;14161;52.270;10.334;2023-04-24T03:02:38;0.70;;;0.60;;
26474;SDS011;14161;52.270;10.334;2023-04-24T03:05:04;0.82;;;0.68;;
26474;SDS011;14161;52.270;10.334;2023-04-24T03:07:30;0.50;;;0.50;;
26474;SDS011;14161;52.270;10.334;2023-04-24T03:09:58;0.52;;;0.52;;
26474;SDS011;14161;52.270;10.334;2023-04-24T03:12:25;2.28;;;0.85;;
26474;SDS011;14161;52.270;10.334;2023-04-24T03:14:51;1.98;;;0.90;;
26474;SDS011;14161;52.270;10.334;2023-04-24T03:17:18;1.92;;;0.50;;
26474;SDS011;14161;52.270;10.334;2023-04-24T03:19:44;0.75;;;0.60;;
26474;SDS011;14161;52.270;10.334;2023-04-24T03:22:11;0.82;;;0.60;;
26474;SDS011;14161;52.270;10.334;2023-04-24T03:24:38;1.27;;;0.70;;
26474;SDS011;14161;52.270;10.334;2023-04-24T03:27:04;0.63;;;0.60;;
26474;SDS011;14161;52.270;10.334;2023-04-24T03:29:45;0.70;;;0.63;;
26474;SDS011;14161;52.270;10.334;2023-04-24T03:32:11;0.93;;;0.80;;
26474;SDS011;14161;52.270;10.334;2023-04-24T03:34:37;0.55;;;0.50;;
26474;SDS011;14161;52.270;10.334;2023-04-24T03:37:03;0.77;;;0.60;;
26474;SDS011;14161;52.270;10.334;2023-04-24T03:39:31;1.00;;;0.63;;
26474;SDS011;14161;52.270;10.334;2023-04-24T03:41:56;0.80;;;0.50;;
26474;SDS011;14161;52.270;10.334;2023-04-24T03:44:28;2.50;;;0.55;;
26474;SDS011;14161;52.270;10.334;2023-04-24T03:46:54;1.02;;;0.63;;
26474;SDS011;14161;52.270;10.334;2023-04-24T03:49:21;0.80;;;0.55;;
26474;SDS011;14161;52.270;10.334;2023-04-24T03:51:47;2.15;;;0.73;;
26474;SDS011;14161;52.270;10.334;2023-04-24T03:54:24;0.98;;;0.52;;
26474;SDS011;14161;52.270;10.334;2023-04-24T03:56:52;0.70;;;0.60;;
26474;SDS011;14161;52.270;10.334;2023-04-24T03:59:18;1.40;;;0.60;;
26474;SDS011;14161;52.270;10.334;2023-04-24T04:01:49;0.60;;;0.50;;
26474;SDS011;14161;52.270;10.334;2023-04-24T04:04:16;0.90;;;0.60;;
26474;SDS011;14161;52.270;10.334;2023-04-24T04:06:43;0.50;;;0.50;;
26474;SDS011;14161;52.270;10.334;2023-04-24T04:09:09;1.35;;;0.60;;
26474;SDS011;14161;52.270;10.334;2023-04-24T04:11:35;0.52;;;0.50;;
26474;SDS011;14161;52.270;10.334;2023-04-24T04:14:01;0.95;;;0.60;;
26474;SDS011;14161;52.270;10.334;2023-04-24T04:16:27;0.47;;;0.47;;
26474;SDS011;14161;52.270;10.334;2023-04-24T04:18:58;0.40;;;0.40;;
26474;SDS011;14161;52.270;10.334;2023-04-24T04:21:24;0.45;;;0.40;;
26474;SDS011;14161;52.270;10.334;2023-04-24T04:23:55;0.95;;;0.50;;
26474;SDS011;14161;52.270;10.334;2023-04-24T04:26:28;0.77;;;0.57;;
26474;SDS011;14161;52.270;10.334;2023-04-24T04:29:11;1.05;;;0.60;;
26474;SDS011;14161;52.270;10.334;2023-04-24T04:31:40;0.60;;;0.60;;
26474;SDS011;14161;52.270;10.334;2023-04-24T04:34:10;0.60;;;0.60;;
26474;SDS011;14161;52.270;10.334;2023-04-24T04:36:37;1.58;;;0.77;;
26474;SDS011;14161;52.270;10.334;2023-04-24T04:39:20;0.47;;;0.45;;
26474;SDS011;14161;52.270;10.334;2023-04-24T04:41:58;0.40;;;0.40;;
26474;SDS011;14161;52.270;10.334;2023-04-24T04:44:30;1.35;;;0.55;;
26474;SDS011;14161;52.270;10.334;2023-04-24T04:46:57;1.65;;;0.70;;
26474;SDS011;14161;52.270;10.334;2023-04-24T04:49:26;0.55;;;0.43;;
26474;SDS011;14161;52.270;10.334;2023-04-24T04:51:53;0.35;;;0.35;;
26474;SDS011;14161;52.270;10.334;2023-04-24T04:54:20;2.25;;;0.50;;
26474;SDS011;14161;52.270;10.334;2023-04-24T04:56:45;0.88;;;0.60;;
26474;SDS011;14161;52.270;10.334;2023-04-24T04:59:10;0.35;;;0.35;;
26474;SDS011;14161;52.270;10.334;2023-04-24T05:01:38;3.17;;;0.70;;
26474;SDS011;14161;52.270;10.334;2023-04-24T05:04:06;0.70;;;0.55;;
26474;SDS011;14161;52.270;10.334;2023-04-24T05:06:31;0.85;;;0.60;;
26474;SDS011;14161;52.270;10.334;2023-04-24T05:08:57;1.38;;;0.63;;
26474;SDS011;14161;52.270;10.334;2023-04-24T05:11:35;0.80;;;0.55;;
26474;SDS011;14161;52.270;10.334;2023-04-24T05:14:01;2.08;;;0.65;;
26474;SDS011;14161;52.270;10.334;2023-04-24T05:16:38;0.75;;;0.60;;
26474;SDS011;14161;52.270;10.334;2023-04-24T05:19:05;1.00;;;0.70;;
26474;SDS011;14161;52.270;10.334;2023-04-24T05:21:35;4.93;;;0.80;;
26474;SDS011;14161;52.270;10.334;2023-04-24T05:24:01;2.05;;;0.85;;
26474;SDS011;14161;52.270;10.334;2023-04-24T05:26:53;2.35;;;0.80;;
26474;SDS011;14161;52.270;10.334;2023-04-24T05:29:23;1.17;;;0.77;;
26474;SDS011;14161;52.270;10.334;2023-04-24T05:31:49;2.22;;;1.10;;
26474;SDS011;14161;52.270;10.334;2023-04-24T05:34:19;1.45;;;0.82;;
26474;SDS011;14161;52.270;10.334;2023-04-24T05:36:49;0.70;;;0.65;;
26474;SDS011;14161;52.270;10.334;2023-04-24T05:39:16;1.88;;;1.00;;
26474;SDS011;14161;52.270;10.334;2023-04-24T05:41:41;5.38;;;1.25;;
26474;SDS011;14161;52.270;10.334;2023-04-24T05:44:07;1.73;;;1.23;;
26474;SDS011;14161;52.270;10.334;2023-04-24T05:46:32;2.85;;;0.88;;
26474;SDS011;14161;52.270;10.334;2023-04-24T05:48:58;0.80;;;0.80;;
26474;SDS011;14161;52.270;10.334;2023-04-24T05:51:24;1.05;;;0.75;;
26474;SDS011;14161;52.270;10.334;2023-04-24T05:53:51;0.60;;;0.60;;
26474;SDS011;14161;52.270;10.334;2023-04-24T05:56:17;4.00;;;0.90;;
26474;SDS011;14161;52.270;10.334;2023-04-24T05:58:42;0.95;;;0.50;;
26474;SDS011;14161;52.270;10.334;2023-04-24T06:01:08;1.05;;;0.70;;
26474;SDS011;14161;52.270;10.334;2023-04-24T06:03:34;1.80;;;0.73;;
26474;SDS011;14161;52.270;10.334;2023-04-24T06:06:02;1.52;;;0.57;;
26474;SDS011;14161;52.270;10.334;2023-04-24T06:08:27;0.82;;;0.70;;
26474;SDS011;14161;52.270;10.334;2023-04-24T06:10:53;1.17;;;0.90;;
26474;SDS011;14161;52.270;10.334;2023-04-24T06:13:20;1.63;;;0.70;;
26474;SDS011;14161;52.270;10.334;2023-04-24T06:16:05;0.95;;;0.82;;
26474;SDS011;14161;52.270;10.334;2023-04-24T06:18:34;0.80;;;0.70;;
26474;SDS011;14161;52.270;10.334;2023-04-24T06:20:59;1.05;;;0.80;;
26474;SDS011;14161;52.270;10.334;2023-04-24T06:23:25;0.80;;;0.60;;
26474;SDS011;14161;52.270;10.334;2023-04-24T06:25:50;1.02;;;0.63;;
26474;SDS011;14161;52.270;10.334;2023-04-24T06:28:16;1.45;;;0.57;;
26474;SDS011;14161;52.270;10.334;2023-04-24T06:30:41;0.57;;;0.57;;
26474;SDS011;14161;52.270;10.334;2023-04-24T06:33:08;3.15;;;0.70;;
26474;SDS011;14161;52.270;10.334;2023-04-24T06:35:35;0.65;;;0.60;;
26474;SDS011;14161;52.270;10.334;2023-04-24T06:38:01;0.63;;;0.57;;
26474;SDS011;14161;52.270;10.334;2023-04-24T06:40:27;0.40;;;0.40;;
26474;SDS011;14161;52.270;10.334;2023-04-24T06:42:52;1.95;;;0.60;;
26474;SDS011;14161;52.270;10.334;2023-04-24T06:45:18;0.85;;;0.60;;
26474;SDS011;14161;52.270;10.334;2023-04-24T06:47:43;0.93;;;0.60;;
26474;SDS011;14161;52.270;10.334;2023-04-24T06:50:09;1.63;;;0.57;;
26474;SDS011;14161;52.270;10.334;2023-04-24T06:52:35;1.98;;;1.23;;
26474;SDS011;14161;52.270;10.334;2023-04-24T06:55:03;0.32;;;0.32;;
26474;SDS011;14161;52.270;10.334;2023-04-24T06:57:30;0.65;;;0.63;;
26474;SDS011;14161;52.270;10.334;2023-04-24T06:59:55;1.05;;;0.60;;
26474;SDS011;14161;52.270;10.334;2023-04-24T07:02:21;0.82;;;0.50;;
26474;SDS011;14161;52.270;10.334;2023-04-24T07:04:47;1.20;;;0.70;;
26474;SDS011;14161;52.270;10.334;2023-04-24T07:07:15;1.05;;;0.70;;
26474;SDS011;14161;52.270;10.334;2023-04-24T07:09:41;0.63;;;0.60;;
26474;SDS011;14161;52.270;10.334;2023-04-24T07:12:10;4.80;;;0.90;;
26474;SDS011;14161;52.270;10.334;2023-04-24T07:14:36;0.63;;;0.50;;
26474;SDS011;14161;52.270;10.334;2023-04-24T07:17:02;1.05;;;0.70;;
26474;SDS011;14161;52.270;10.334;2023-04-24T07:19:31;1.20;;;0.77;;
26474;SDS011;14161;52.270;10.334;2023-04-24T07:21:58;3.45;;;0.88;;
26474;SDS011;14161;52.270;10.334;2023-04-24T07:24:24;1.23;;;0.90;;
26474;SDS011;14161;52.270;10.334;2023-04-24T07:26:51;1.58;;;0.85;;
26474;SDS011;14161;52.270;10.334;2023-04-24T07:29:17;1.45;;;0.85;;
26474;SDS011;14161;52.270;10.334;2023-04-24T07:31:43;1.20;;;1.10;;
26474;SDS011;14161;52.270;10.334;2023-04-24T07:34:08;1.27;;;0.90;;
26474;SDS011;14161;52.270;10.334;2023-04-24T07:36:34;1.73;;;1.08;;
26474;SDS011;14161;52.270;10.334;2023-04-24T07:39:00;1.33;;;1.17;;
26474;SDS011;14161;52.270;10.334;2023-04-24T07:41:25;1.10;;;1.00;;
26474;SDS011;14161;52.270;10.334;2023-04-24T07:43:52;0.90;;;0.82;;
26474;SDS011;14161;52.270;10.334;2023-04-24T07:46:18;0.82;;;0.82;;
26474;SDS011;14161;52.270;10.334;2023-04-24T07:48:44;1.40;;;0.70;;
26474;SDS011;14161;52.270;10.334;2023-04-24T07:51:11;1.67;;;1.00;;
26474;SDS011;14161;52.270;10.334;2023-04-24T07:53:38;1.10;;;1.00;;
26474;SDS011;14161;52.270;10.334;2023-04-24T07:56:05;0.80;;;0.80;;
26474;SDS011;14161;52.270;10.334;2023-04-24T07:58:30;2.97;;;1.40;;
26474;SDS011;14161;52.270;10.334;2023-04-24T08:00:56;1.17;;;0.80;;
26474;SDS011;14161;52.270;10.334;2023-04-24T08:03:21;1.42;;;0.93;;
26474;SDS011;14161;52.270;10.334;2023-04-24T08:05:47;0.95;;;0.95;;
26474;SDS011;14161;52.270;10.334;2023-04-24T08:08:12;2.03;;;1.13;;
26474;SDS011;14161;52.270;10.334;2023-04-24T08:10:38;3.22;;;1.60;;
26474;SDS011;14161;52.270;10.334;2023-04-24T08:13:04;2.00;;;1.50;;
26474;SDS011;14161;52.270;10.334;2023-04-24T08:15:29;2.08;;;1.58;;
26474;SDS011;14161;52.270;10.334;2023-04-24T08:17:55;1.85;;;1.30;;
26474;SDS011;14161;52.270;10.334;2023-04-24T08:20:21;2.47;;;1.73;;
26474;SDS011;14161;52.270;10.334;2023-04-24T08:22:46;2.22;;;1.98;;
26474;SDS011;14161;52.270;10.334;2023-04-24T08:25:15;2.22;;;1.70;;
26474;SDS011;14161;52.270;10.334;2023-04-24T08:27:40;2.65;;;2.00;;
26474;SDS011;14161;52.270;10.334;2023-04-24T08:30:06;2.55;;;1.92;;
26474;SDS011;14161;52.270;10.334;2023-04-24T08:32:32;3.67;;;2.90;;
26474;SDS011;14161;52.270;10.334;2023-04-24T08:34:58;3.40;;;2.90;;
26474;SDS011;14161;52.270;10.334;2023-04-24T08:37:25;3.00;;;2.60;;
26474;SDS011;14161;52.270;10.334;2023-04-24T08:39:51;3.15;;;2.80;;
26474;SDS011;14161;52.270;10.334;2023-04-24T08:42:17;5.18;;;2.67;;
26474;SDS011;14161;52.270;10.334;2023-04-24T08:44:43;3.67;;;2.70;;
26474;SDS011;14161;52.270;10.334;2023-04-24T08:47:10;3.10;;;2.65;;
26474;SDS011;14161;52.270;10.334;2023-04-24T08:49:36;3.58;;;3.13;;
26474;SDS011;14161;52.270;10.334;2023-04-24T08:52:02;3.13;;;2.83;;
26474;SDS011;14161;52.270;10.334;2023-04-24T08:54:28;4.47;;;3.40;;
26474;SDS011;14161;52.270;10.334;2023-04-24T08:56:56;4.07;;;3.60;;
26474;SDS011;14161;52.270;10.334;2023-04-24T08:59:26;4.05;;;3.60;;
26474;SDS011;14161;52.270;10.334;2023-04-24T09:01:51;5.72;;;3.88;;
26474;SDS011;14161;52.270;10.334;2023-04-24T09:04:17;3.30;;;3.00;;
26474;SDS011;14161;52.270;10.334;2023-04-24T09:06:45;5.68;;;3.60;;
26474;SDS011;14161;52.270;10.334;2023-04-24T09:09:10;3.95;;;3.10;;
26474;SDS011;14161;52.270;10.334;2023-04-24T09:11:36;3.88;;;3.20;;
26474;SDS011;14161;52.270;10.334;2023-04-24T09:14:02;4.80;;;3.55;;
26474;SDS011;14161;52.270;10.334;2023-04-24T09:16:28;3.95;;;3.25;;
26474;SDS011;14161;52.270;10.334;2023-04-24T09:18:54;3.20;;;2.67;;
26474;SDS011;14161;52.270;10.334;2023-04-24T09:21:20;5.05;;;2.85;;
26474;SDS011;14161;52.270;10.334;2023-04-24T09:23:47;3.15;;;2.85;;
26474;SDS011;14161;52.270;10.334;2023-04-24T09:26:22;2.40;;;2.20;;
26474;SDS011;14161;52.270;10.334;2023-04-24T09:28:48;2.88;;;2.00;;
26474;SDS011;14161;52.270;10.334;2023-04-24T09:31:15;3.90;;;2.13;;
26474;SDS011;14161;52.270;10.334;2023-04-24T09:36:33;2.35;;;2.10;;
26474;SDS011;14161;52.270;10.334;2023-04-24T09:39:02;3.63;;;2.25;;
26474;SDS011;14161;52.270;10.334;2023-04-24T09:41:29;1.92;;;1.70;;
26474;SDS011;14161;52.270;10.334;2023-04-24T09:43:55;5.68;;;2.10;;
26474;SDS011;14161;52.270;10.334;2023-04-24T09:46:21;2.72;;;1.85;;
26474;SDS011;14161;52.270;10.334;2023-04-24T09:48:53;3.13;;;2.00;;
26474;SDS011;14161;52.270;10.334;2023-04-24T09:51:18;2.40;;;1.73;;
26474;SDS011;14161;52.270;10.334;2023-04-24T09:53:58;1.67;;;1.58;;
26474;SDS011;14161;52.270;10.334;2023-04-24T09:56:24;1.83;;;1.55;;
26474;SDS011;14161;52.270;10.334;2023-04-24T09:58:50;2.63;;;1.90;;
26474;SDS011;14161;52.270;10.334;2023-04-24T10:01:16;2.03;;;1.73;;
26474;SDS011;14161;52.270;10.334;2023-04-24T10:03:42;2.97;;;2.20;;
26474;SDS011;14161;52.270;10.334;2023-04-24T10:06:08;2.92;;;1.50;;
26474;SDS011;14161;52.270;10.334;2023-04-24T10:08:36;2.65;;;1.70;;
26474;SDS011;14161;52.270;10.334;2023-04-24T10:11:02;1.80;;;1.40;;
26474;SDS011;14161;52.270;10.334;2023-04-24T10:13:27;1.30;;;1.20;;
26474;SDS011;14161;52.270;10.334;2023-04-24T10:15:53;1.33;;;1.20;;
26474;SDS011;14161;52.270;10.334;2023-04-24T10:18:19;2.78;;;1.58;;
26474;SDS011;14161;52.270;10.334;2023-04-24T10:20:46;1.40;;;1.30;;
26474;SDS011;14161;52.270;10.334;2023-04-24T10:23:12;2.15;;;1.65;;
26474;SDS011;14161;52.270;10.334;2023-04-24T10:25:38;2.05;;;1.67;;
26474;SDS011;14161;52.270;10.334;2023-04-24T10:28:03;2.78;;;1.85;;
26474;SDS011;14161;52.270;10.334;2023-04-24T10:30:30;1.92;;;1.42;;
26474;SDS011;14161;52.270;10.334;2023-04-24T10:33:03;1.73;;;1.45;;
26474;SDS011;14161;52.270;10.334;2023-04-24T10:35:33;2.53;;;1.20;;
26474;SDS011;14161;52.270;10.334;2023-04-24T10:38:21;1.10;;;1.00;;
26474;SDS011;14161;52.270;10.334;2023-04-24T10:40:49;1.50;;;1.40;;
26474;SDS011;14161;52.270;10.334;2023-04-24T10:43:16;1.38;;;1.25;;
26474;SDS011;14161;52.270;10.334;2023-04-24T10:45:42;1.58;;;1.30;;
26474;SDS011;14161;52.270;10.334;2023-04-24T10:48:26;2.35;;;2.15;;
26474;SDS011;14161;52.270;10.334;2023-04-24T10:50:52;1.70;;;1.50;;
26474;SDS011;14161;52.270;10.334;2023-04-24T10:53:19;1.88;;;1.20;;
26474;SDS011;14161;52.270;10.334;2023-04-24T10:55:50;1.10;;;1.02;;
26474;SDS011;14161;52.270;10.334;2023-04-24T10:58:16;1.42;;;1.13;;
26474;SDS011;14161;52.270;10.334;2023-04-24T11:00:55;1.33;;;1.23;;
26474;SDS011;14161;52.270;10.334;2023-04-24T11:03:23;2.13;;;1.20;;
26474;SDS011;14161;52.270;10.334;2023-04-24T11:08:27;2.15;;;1.70;;
26474;SDS011;14161;52.270;10.334;2023-04-24T11:16:20;2.65;;;1.35;;
26474;SDS011;14161;52.270;10.334;2023-04-24T11:18:52;1.63;;;1.30;;
26474;SDS011;14161;52.270;10.334;2023-04-24T11:21:27;1.40;;;1.10;;
26474;SDS011;14161;52.270;10.334;2023-04-24T11:23:57;3.67;;;1.45;;
26474;SDS011;14161;52.270;10.334;2023-04-24T11:26:22;1.58;;;1.20;;
26474;SDS011;14161;52.270;10.334;2023-04-24T11:29:05;3.30;;;1.10;;
26474;SDS011;14161;52.270;10.334;2023-04-24T11:31:36;1.02;;;1.00;;
26474;SDS011;14161;52.270;10.334;2023-04-24T11:34:12;1.88;;;1.25;;
26474;SDS011;14161;52.270;10.334;2023-04-24T11:36:39;1.50;;;1.02;;
26474;SDS011;14161;52.270;10.334;2023-04-24T11:39:05;1.65;;;1.02;;
26474;SDS011;14161;52.270;10.334;2023-04-24T11:41:31;3.50;;;1.48;;
26474;SDS011;14161;52.270;10.334;2023-04-24T11:43:57;1.42;;;1.30;;
26474;SDS011;14161;52.270;10.334;2023-04-24T11:46:26;1.08;;;1.00;;
26474;SDS011;14161;52.270;10.334;2023-04-24T11:48:52;1.10;;;1.00;;
26474;SDS011;14161;52.270;10.334;2023-04-24T11:51:18;1.40;;;1.30;;
26474;SDS011;14161;52.270;10.334;2023-04-24T11:53:44;1.58;;;1.30;;
26474;SDS011;14161;52.270;10.334;2023-04-24T11:56:09;1.45;;;1.30;;
26474;SDS011;14161;52.270;10.334;2023-04-24T11:58:35;1.55;;;1.20;;
26474;SDS011;14161;52.270;10.334;2023-04-24T12:01:01;1.15;;;0.98;;
26474;SDS011;14161;52.270;10.334;2023-04-24T12:03:27;2.03;;;1.20;;
26474;SDS011;14161;52.270;10.334;2023-04-24T12:05:52;2.33;;;1.10;;
26474;SDS011;14161;52.270;10.334;2023-04-24T12:08:31;0.95;;;0.90;;
26474;SDS011;14161;52.270;10.334;2023-04-24T12:10:57;1.67;;;0.90;;
26474;SDS011;14161;52.270;10.334;2023-04-24T12:13:25;3.33;;;0.70;;
26474;SDS011;14161;52.270;10.334;2023-04-24T12:15:50;1.23;;;0.70;;
26474;SDS011;14161;52.270;10.334;2023-04-24T12:18:16;0.57;;;0.57;;
26474;SDS011;14161;52.270;10.334;2023-04-24T12:20:44;0.57;;;0.55;;
26474;SDS011;14161;52.270;10.334;2023-04-24T12:23:10;1.00;;;0.70;;
26474;SDS011;14161;52.270;10.334;2023-04-24T12:25:35;0.77;;;0.77;;
26474;SDS011;14161;52.270;10.334;2023-04-24T12:30:29;0.77;;;0.75;;
26474;SDS011;14161;52.270;10.334;2023-04-24T12:32:59;1.40;;;0.70;;
26474;SDS011;14161;52.270;10.334;2023-04-24T12:35:26;1.33;;;0.60;;
26474;SDS011;14161;52.270;10.334;2023-04-24T12:37:53;1.75;;;0.55;;
26474;SDS011;14161;52.270;10.334;2023-04-24T12:40:19;2.35;;;0.50;;
26474;SDS011;14161;52.270;10.334;2023-04-24T12:42:46;0.75;;;0.38;;
26474;SDS011;14161;52.270;10.334;2023-04-24T12:45:13;0.90;;;0.50;;
26474;SDS011;14161;52.270;10.334;2023-04-24T12:47:40;0.50;;;0.50;;
26474;SDS011;14161;52.270;10.334;2023-04-24T12:50:07;0.38;;;0.32;;
26474;SDS011;14161;52.270;10.334;2023-04-24T12:52:33;1.17;;;0.80;;
26474;SDS011;14161;52.270;10.334;2023-04-24T12:54:59;0.47;;;0.47;;
26474;SDS011;14161;52.270;10.334;2023-04-24T12:57:25;0.50;;;0.50;;
26474;SDS011;14161;52.270;10.334;2023-04-24T12:59:53;0.60;;;0.50;;
26474;SDS011;14161;52.270;10.334;2023-04-24T13:02:20;2.70;;;0.50;;
26474;SDS011;14161;52.270;10.334;2023-04-24T13:04:47;0.40;;;0.40;;
26474;SDS011;14161;52.270;10.334;2023-04-24T13:07:13;1.95;;;0.50;;
26474;SDS011;14161;52.270;10.334;2023-04-24T13:09:39;3.17;;;0.52;;
26474;SDS011;14161;52.270;10.334;2023-04-24T13:12:04;2.05;;;0.38;;
26474;SDS011;14161;52.270;10.334;2023-04-24T13:14:30;0.95;;;0.50;;
26474;SDS011;14161;52.270;10.334;2023-04-24T13:16:56;0.40;;;0.40;;
26474;SDS011;14161;52.270;10.334;2023-04-24T13:19:23;0.50;;;0.50;;
26474;SDS011;14161;52.270;10.334;2023-04-24T13:21:50;0.52;;;0.40;;
26474;SDS011;14161;52.270;10.334;2023-04-24T13:24:16;0.45;;;0.30;;
26474;SDS011;14161;52.270;10.334;2023-04-24T13:26:42;0.60;;;0.60;;
26474;SDS011;14161;52.270;10.334;2023-04-24T13:29:08;3.72;;;0.60;;
26474;SDS011;14161;52.270;10.334;2023-04-24T13:31:33;1.85;;;0.45;;
26474;SDS011;14161;52.270;10.334;2023-04-24T13:33:59;1.38;;;0.50;;
26474;SDS011;14161;52.270;10.334;2023-04-24T13:36:24;2.28;;;0.77;;
26474;SDS011;14161;52.270;10.334;2023-04-24T13:38:50;1.92;;;0.80;;
26474;SDS011;14161;52.270;10.334;2023-04-24T13:41:15;8.32;;;1.80;;
26474;SDS011;14161;52.270;10.334;2023-04-24T13:43:41;1.23;;;1.10;;
26474;SDS011;14161;52.270;10.334;2023-04-24T13:46:07;2.97;;;1.00;;
26474;SDS011;14161;52.270;10.334;2023-04-24T13:48:33;0.93;;;0.90;;
26474;SDS011;14161;52.270;10.334;2023-04-24T13:50:59;0.70;;;0.70;;
26474;SDS011;14161;52.270;10.334;2023-04-24T13:53:25;0.60;;;0.60;;
26474;SDS011;14161;52.270;10.334;2023-04-24T13:55:50;0.68;;;0.68;;
26474;SDS011;14161;52.270;10.334;2023-04-24T13:58:16;0.57;;;0.57;;
26474;SDS011;14161;52.270;10.334;2023-04-24T14:00:41;1.13;;;0.60;;
26474;SDS011;14161;52.270;10.334;2023-04-24T14:03:07;3.38;;;0.55;;
26474;SDS011;14161;52.270;10.334;2023-04-24T14:05:32;0.75;;;0.40;;
26474;SDS011;14161;52.270;10.334;2023-04-24T14:07:57;0.80;;;0.70;;
26474;SDS011;14161;52.270;10.334;2023-04-24T14:10:23;0.52;;;0.52;;
26474;SDS011;14161;52.270;10.334;2023-04-24T14:12:48;0.43;;;0.43;;
26474;SDS011;14161;52.270;10.334;2023-04-24T14:15:14;0.40;;;0.40;;
26474;SDS011;14161;52.270;10.334;2023-04-24T14:17:40;0.40;;;0.40;;
26474;SDS011;14161;52.270;10.334;2023-04-24T14:20:05;0.40;;;0.40;;
26474;SDS011;14161;52.270;10.334;2023-04-24T14:22:32;3.42;;;0.70;;
26474;SDS011;14161;52.270;10.334;2023-04-24T14:24:57;0.90;;;0.40;;
26474;SDS011;14161;52.270;10.334;2023-04-24T14:27:24;0.63;;;0.60;;
26474;SDS011;14161;52.270;10.334;2023-04-24T14:29:50;1.35;;;0.47;;
26474;SDS011;14161;52.270;10.334;2023-04-24T14:32:15;0.47;;;0.30;;
26474;SDS011;14161;52.270;10.334;2023-04-24T14:34:41;2.08;;;0.30;;
26474;SDS011;14161;52.270;10.334;2023-04-24T14:37:06;0.25;;;0.25;;
26474;SDS011;14161;52.270;10.334;2023-04-24T14:39:32;0.20;;;0.20;;
26474;SDS011;14161;52.270;10.334;2023-04-24T14:41:57;0.30;;;0.30;;
26474;SDS011;14161;52.270;10.334;2023-04-24T14:44:23;0.20;;;0.20;;
26474;SDS011;14161;52.270;10.334;2023-04-24T14:46:48;0.30;;;0.30;;